PCG weather

Paso Caballos Airport
Paso Caballos, Peten, Guatemala

Public forecast

Using degrees Celsius for public forecast. Weather courtesy of forecast.io.

METAR (pilot weather report)

Closest report is Mundo Maya International Airport, 30.7 nm (56.9 km) SE. Retrieved 2019/09/17 01:00 UTC (38 minutes ago):

MGMM 170100Z 00000KT 9999 SCT020 25/25 Q1013 A2991

TAF (pilot weather forecast)

Forecast is more than 12 hours old.

Closest forecast is Mundo Maya International Airport, 30.7 nm (56.9 km) SE. Retrieved 2019/09/16 00:00 UTC (1 day ago):

TAF MGMM 162300Z 1700/1724 00000KT 9999 BKN012 TX34/1720Z TN22/1712Z PROB30 1700/1712 8000 TSRA FEW025CB BECMG 1715/1717 VRB03KT SCT030 TEMPO 1720/1724 8000 VCTSRA SCT020 FEW030CB